»·PEaware :: AFL123 KJFK-UUEE

AFL123 :: KJFK-UUEE

FLIGHT INFORMATION

Flight Status: Arrived
Operator:
Aeroflot
More flights by this operator :: More flights under this callsign
Pilot: Anonymous 35349 (35349)
Aircraft: BOEING 747-400 (WINGLETS)
(B744)
More flights by this aircraft type
Origin: KJFK Kennedy Intl
United States
Destination: UUEE Sheremetyevo
Russian Federation
More flights between these airports :: More routes between these airports
Route:
File this flight plan on PilotEdge
Remarks:
Altitude:
(Current/Filed)
31,000ft
Speed:
(Current/Filed)
330kts
Departed: 27-Jun-21 12:12 PM
Arrived: 27-Jun-21 09:37 PM
Distance/Time
Traveled:
4037nm/9:25
Distance/Time
To Go:
Arrived

Flight Plot

Page will automatically refresh every two minutes.

Flight plan parsing failed; only flown route is shown


Map Options




Map Legend


Flown Route
Filed Route
Departure Airport
Arrival Airport
Navaid (VOR, NDB)
Fix

Horizontal Profiles

Position Reports

Time Latitude Longitude Heading Altitude Ground
Speed
27-Jun-21 12:08 40.622513 -73.785200 30 27ft 0kts
27-Jun-21 12:09 40.622513 -73.785200 30 27ft 0kts
27-Jun-21 12:10 40.622514 -73.785200 30 27ft 0kts
27-Jun-21 12:11 40.624250 -73.783878 30 27ft 60kts
27-Jun-21 12:12 40.666883 -73.750620 30 1029ft 257kts
27-Jun-21 12:13 40.742004 -73.682926 35 2961ft 318kts
27-Jun-21 12:14 40.803546 -73.623654 36 4675ft 256kts
27-Jun-21 12:15 40.862811 -73.567815 35 6481ft 267kts
27-Jun-21 12:16 40.924543 -73.510922 34 8289ft 274kts
27-Jun-21 12:17 40.988098 -73.452634 34 9884ft 290kts
27-Jun-21 12:18 41.055000 -73.391237 34 9997ft 288kts
27-Jun-21 12:19 41.120640 -73.330856 34 9999ft 286kts
27-Jun-21 12:20 41.186015 -73.270571 34 10000ft 286kts
27-Jun-21 12:21 41.251270 -73.210248 34 10000ft 286kts
27-Jun-21 12:22 41.316580 -73.149725 34 10000ft 286kts
27-Jun-21 12:23 41.381712 -73.089217 34 10000ft 286kts
27-Jun-21 12:24 41.447063 -73.028354 35 10000ft 286kts
27-Jun-21 12:25 41.512179 -72.967557 35 10000ft 286kts
27-Jun-21 12:26 41.577453 -72.906461 35 10000ft 286kts
27-Jun-21 12:27 41.642582 -72.845346 35 10000ft 286kts
27-Jun-21 12:28 41.707676 -72.784111 35 10082ft 282kts
27-Jun-21 12:29 41.778505 -72.717316 35 11182ft 365kts
27-Jun-21 12:30 41.864283 -72.636233 35 12181ft 371kts
27-Jun-21 12:31 41.950055 -72.554859 35 13192ft 383kts
27-Jun-21 12:32 42.037489 -72.471609 35 14192ft 388kts
27-Jun-21 12:33 42.126199 -72.386840 35 15195ft 394kts
27-Jun-21 12:34 42.216197 -72.300530 35 16198ft 399kts
27-Jun-21 12:35 42.307179 -72.212965 35 17199ft 405kts
27-Jun-21 12:36 42.399635 -72.123654 35 18201ft 411kts
27-Jun-21 12:37 42.493333 -72.032805 35 19203ft 417kts
27-Jun-21 12:38 42.588476 -71.940205 35 20207ft 423kts
27-Jun-21 12:40 42.684622 -71.846267 35 21207ft 430kts
27-Jun-21 12:41 42.782357 -71.750401 35 22209ft 436kts
27-Jun-21 12:42 42.881381 -71.652881 35 23211ft 442kts
27-Jun-21 12:43 42.981823 -71.553561 35 24213ft 449kts
27-Jun-21 12:44 43.083956 -71.452150 36 24976ft 461kts
27-Jun-21 12:45 43.188292 -71.348115 36 24999ft 462kts
27-Jun-21 12:46 43.291851 -71.244396 36 24999ft 459kts
27-Jun-21 12:47 43.394613 -71.141024 36 25000ft 459kts
27-Jun-21 12:48 43.497597 -71.036978 36 25000ft 459kts
27-Jun-21 12:49 43.600701 -70.932357 36 24999ft 459kts
27-Jun-21 12:50 43.703331 -70.827762 36 25000ft 459kts
27-Jun-21 12:51 43.805022 -70.723668 36 25838ft 453kts
27-Jun-21 12:52 43.907928 -70.617874 36 26844ft 468kts
27-Jun-21 12:53 44.013204 -70.509177 36 27846ft 473kts
27-Jun-21 12:54 44.119180 -70.399263 36 28844ft 479kts
27-Jun-21 12:55 44.226938 -70.286985 36 29848ft 486kts
27-Jun-21 13:09 40.622513 -73.785199 30 27ft 0kts
27-Jun-21 13:09 40.622516 -73.785196 30 27ft 0kts
27-Jun-21 13:11 40.622519 -73.785194 30 27ft 0kts
27-Jun-21 13:11 40.635927 -73.774921 30 28ft 171kts
27-Jun-21 13:12 40.700801 -73.718748 35 1462ft 344kts
27-Jun-21 13:13 40.765916 -73.657578 35 3135ft 253kts
27-Jun-21 13:14 40.824056 -73.603173 35 4944ft 261kts
27-Jun-21 13:15 40.884285 -73.547815 34 6744ft 267kts
27-Jun-21 13:16 40.946477 -73.490905 34 8552ft 274kts
27-Jun-21 13:17 41.010603 -73.432180 34 9965ft 295kts
27-Jun-21 13:18 41.077456 -73.370832 34 9997ft 287kts
27-Jun-21 13:19 41.142898 -73.310619 34 9999ft 286kts
27-Jun-21 13:20 41.208348 -73.250250 34 10000ft 286kts
27-Jun-21 13:21 41.273612 -73.189902 34 10000ft 286kts
27-Jun-21 13:22 41.339098 -73.129198 34 10000ft 286kts
27-Jun-21 13:23 41.404219 -73.068683 34 10000ft 286kts
27-Jun-21 13:24 41.469354 -73.008004 35 10000ft 286kts
27-Jun-21 13:25 41.536666 -72.945138 35 10927ft 335kts
27-Jun-21 13:26 41.621854 -72.865404 35 11963ft 371kts
27-Jun-21 13:27 41.706655 -72.785760 35 12965ft 380kts
27-Jun-21 13:28 41.793841 -72.703583 35 13967ft 385kts
27-Jun-21 13:29 41.882033 -72.620161 35 14968ft 391kts
27-Jun-21 13:30 41.971727 -72.535017 35 15972ft 397kts
27-Jun-21 13:31 42.062655 -72.448395 35 16975ft 403kts
27-Jun-21 13:32 42.154876 -72.360223 35 17978ft 410kts
27-Jun-21 13:33 42.248581 -72.270302 35 18981ft 416kts
27-Jun-21 13:34 42.343455 -72.178918 35 19982ft 422kts
27-Jun-21 13:35 42.439735 -72.085824 35 20984ft 428kts
27-Jun-21 13:36 42.537325 -71.991097 35 21986ft 435kts
27-Jun-21 13:37 42.636165 -71.894777 35 22987ft 441kts
27-Jun-21 13:38 42.736507 -71.796601 35 23989ft 448kts
27-Jun-21 13:39 42.838396 -71.696502 35 24905ft 456kts
27-Jun-21 13:40 42.942706 -71.593598 35 25000ft 463kts
27-Jun-21 13:41 43.046341 -71.490916 36 24999ft 459kts
27-Jun-21 13:42 43.149730 -71.388026 36 25000ft 459kts
27-Jun-21 13:43 43.252822 -71.284989 36 25000ft 459kts
27-Jun-21 13:44 43.355828 -71.181594 36 24999ft 459kts
27-Jun-21 13:45 43.458701 -71.077888 36 24999ft 459kts
27-Jun-21 13:46 43.561922 -70.973378 36 25000ft 459kts
27-Jun-21 13:47 43.664366 -70.869207 36 25000ft 459kts
27-Jun-21 13:48 43.767137 -70.764247 36 24999ft 459kts
27-Jun-21 13:49 43.869706 -70.659034 36 24999ft 459kts
27-Jun-21 13:50 43.972347 -70.553285 36 24999ft 459kts
27-Jun-21 13:51 44.074952 -70.447105 36 25000ft 459kts
27-Jun-21 13:52 44.177214 -70.340811 36 25000ft 459kts
27-Jun-21 13:53 44.279453 -70.234067 36 24999ft 459kts
27-Jun-21 13:54 44.381623 -70.126920 36 24999ft 459kts
27-Jun-21 13:55 44.483575 -70.019521 37 25199ft 455kts
27-Jun-21 13:56 44.584112 -69.913135 37 26181ft 459kts
27-Jun-21 13:57 44.687690 -69.803049 37 27189ft 470kts
27-Jun-21 13:58 44.792167 -69.691506 37 28187ft 476kts
27-Jun-21 13:59 44.898053 -69.577929 37 29187ft 481kts
27-Jun-21 14:00 45.005433 -69.462198 37 30190ft 488kts
27-Jun-21 14:01 45.113664 -69.344982 37 30969ft 494kts
27-Jun-21 14:02 45.224157 -69.224726 37 31000ft 504kts
27-Jun-21 14:03 45.335358 -69.103087 37 30999ft 504kts
27-Jun-21 14:04 45.446154 -68.981261 37 30999ft 503kts
27-Jun-21 14:05 45.556592 -68.859201 37 30999ft 503kts
27-Jun-21 14:06 45.667103 -68.736427 37 30999ft 503kts
27-Jun-21 14:07 45.777288 -68.613383 38 31000ft 503kts
27-Jun-21 14:08 45.887351 -68.489839 38 31000ft 502kts
27-Jun-21 14:09 45.997131 -68.365972 38 31000ft 502kts
27-Jun-21 14:10 46.107166 -68.241170 38 30999ft 502kts
27-Jun-21 14:11 46.216748 -68.116231 38 31000ft 502kts
27-Jun-21 14:12 46.326430 -67.990521 38 31000ft 502kts
27-Jun-21 14:13 46.435671 -67.864655 38 30999ft 502kts
27-Jun-21 14:14 46.544831 -67.738220 38 30999ft 502kts
27-Jun-21 14:15 46.654047 -67.611046 38 31000ft 502kts
27-Jun-21 14:16 46.762972 -67.483534 38 30999ft 502kts
27-Jun-21 14:17 46.871790 -67.355462 38 30999ft 502kts
27-Jun-21 14:18 46.980463 -67.226871 39 31000ft 502kts
27-Jun-21 14:19 47.088863 -67.097912 39 31000ft 502kts
27-Jun-21 14:20 47.197659 -66.967776 39 30999ft 502kts
27-Jun-21 14:21 47.305955 -66.837530 39 30999ft 502kts
27-Jun-21 14:22 47.413815 -66.707100 39 31000ft 502kts
27-Jun-21 14:23 47.521920 -66.575656 39 31000ft 502kts
27-Jun-21 14:24 47.629536 -66.444086 39 31000ft 502kts
27-Jun-21 14:25 47.737532 -66.311316 39 31000ft 502kts
27-Jun-21 14:26 47.844953 -66.178517 39 31000ft 502kts
27-Jun-21 14:27 47.952459 -66.044870 39 31000ft 504kts
27-Jun-21 14:28 48.059878 -65.910582 40 31000ft 505kts
27-Jun-21 14:29 48.167494 -65.775287 40 31000ft 505kts
27-Jun-21 14:30 48.274962 -65.639409 40 31000ft 505kts
27-Jun-21 14:31 48.382105 -65.503166 40 31000ft 505kts
27-Jun-21 14:32 48.489055 -65.366390 40 31000ft 505kts
27-Jun-21 14:33 48.596076 -65.228736 40 31000ft 505kts
27-Jun-21 14:34 48.703082 -65.090301 40 31000ft 505kts
27-Jun-21 14:35 48.809408 -64.951947 40 31000ft 505kts
27-Jun-21 14:36 48.915879 -64.812595 40 31000ft 505kts
27-Jun-21 14:37 49.022209 -64.672613 40 31000ft 505kts
27-Jun-21 14:38 49.128113 -64.532371 41 31000ft 505kts
27-Jun-21 14:39 49.234250 -64.390991 41 31000ft 505kts
27-Jun-21 14:40 49.339747 -64.249628 41 31000ft 505kts
27-Jun-21 14:41 49.445542 -64.107023 41 31000ft 505kts
27-Jun-21 14:42 49.550866 -63.964202 41 31000ft 505kts
27-Jun-21 14:43 49.656127 -63.820611 41 31000ft 505kts
27-Jun-21 14:44 49.760994 -63.676696 41 31000ft 505kts
27-Jun-21 14:45 49.866008 -63.531704 41 31000ft 505kts
27-Jun-21 14:46 49.970669 -63.386320 41 31000ft 505kts
27-Jun-21 14:47 50.075123 -63.240336 42 31000ft 505kts
27-Jun-21 14:48 50.179366 -63.093753 42 31000ft 505kts
27-Jun-21 14:49 50.283418 -62.946539 42 31000ft 505kts
27-Jun-21 14:50 50.387358 -62.798573 42 31000ft 505kts
27-Jun-21 14:51 50.491083 -62.649995 42 31000ft 505kts
27-Jun-21 14:52 50.594882 -62.500385 42 31000ft 505kts
27-Jun-21 14:53 50.698000 -62.350825 42 31000ft 505kts
27-Jun-21 14:54 50.801237 -62.200150 42 31000ft 505kts
27-Jun-21 14:55 50.904620 -62.048306 42 31000ft 505kts
27-Jun-21 14:56 51.007336 -61.896482 43 31000ft 505kts
27-Jun-21 14:57 51.109838 -61.744007 43 31000ft 505kts
27-Jun-21 14:58 51.212129 -61.590875 43 31000ft 505kts
27-Jun-21 14:59 51.314292 -61.436951 43 31000ft 505kts
27-Jun-21 15:00 51.416270 -61.282315 43 31000ft 505kts
27-Jun-21 15:01 51.518277 -61.126631 43 31000ft 505kts
27-Jun-21 15:02 51.619892 -60.970534 43 31000ft 505kts
27-Jun-21 15:03 51.721184 -60.813916 43 31000ft 505kts
27-Jun-21 15:04 51.822140 -60.656792 44 31000ft 505kts
27-Jun-21 15:05 51.923283 -60.498339 44 31000ft 505kts
27-Jun-21 15:06 52.023971 -60.339553 44 31000ft 505kts
27-Jun-21 15:07 52.124581 -60.179833 44 31000ft 505kts
27-Jun-21 15:08 52.224589 -60.020008 44 31000ft 505kts
27-Jun-21 15:09 52.324756 -59.858859 44 31000ft 505kts
27-Jun-21 15:10 52.424507 -59.697297 44 31000ft 505kts
27-Jun-21 15:11 52.524444 -59.534336 44 31000ft 505kts
27-Jun-21 15:12 52.623663 -59.371444 45 31000ft 505kts
27-Jun-21 15:13 52.722746 -59.207668 45 31000ft 505kts
27-Jun-21 15:14 52.822004 -59.042473 45 31000ft 505kts
27-Jun-21 15:15 52.920630 -58.877201 45 31000ft 505kts
27-Jun-21 15:16 53.019098 -58.711050 45 31000ft 505kts
27-Jun-21 15:17 53.117335 -58.544138 45 31000ft 505kts
27-Jun-21 15:18 53.215664 -58.375902 45 31000ft 505kts
27-Jun-21 15:19 53.313355 -58.207587 45 31000ft 505kts
27-Jun-21 15:21 53.411092 -58.038006 46 31000ft 505kts
27-Jun-21 15:22 53.508257 -57.868223 46 31000ft 505kts
27-Jun-21 15:23 53.605445 -57.697194 46 31000ft 505kts
27-Jun-21 15:24 53.702079 -57.525924 46 31000ft 505kts
27-Jun-21 15:25 53.798672 -57.353502 46 31000ft 505kts
27-Jun-21 15:26 53.895053 -57.180221 46 31000ft 505kts
27-Jun-21 15:27 53.991071 -57.006342 46 31000ft 505kts
27-Jun-21 15:28 54.086823 -56.831687 47 31000ft 505kts
27-Jun-21 15:29 54.182708 -56.655513 47 31000ft 505kts
27-Jun-21 15:30 54.277685 -56.479726 47 31000ft 505kts
27-Jun-21 15:31 54.373039 -56.301942 47 31000ft 505kts
27-Jun-21 15:32 54.467714 -56.124118 47 31000ft 505kts
27-Jun-21 15:33 54.562217 -55.945298 47 31000ft 505kts
27-Jun-21 15:34 54.656350 -55.765848 47 31000ft 505kts
27-Jun-21 15:35 54.750598 -55.584832 48 31000ft 505kts
27-Jun-21 15:36 54.844090 -55.403915 48 31000ft 505kts
27-Jun-21 15:37 54.937808 -55.221188 48 31000ft 505kts
27-Jun-21 15:38 55.030707 -55.038682 48 31000ft 505kts
27-Jun-21 15:39 55.123587 -54.854820 48 31000ft 505kts
27-Jun-21 15:40 55.216193 -54.670095 48 31000ft 505kts
27-Jun-21 15:41 55.308745 -54.484052 49 31000ft 505kts
27-Jun-21 15:41 55.385573 -54.328518 49 31000ft 505kts
27-Jun-21 15:43 55.492366 -54.110644 49 31000ft 505kts
27-Jun-21 15:44 55.583952 -53.922212 49 31000ft 505kts
27-Jun-21 15:44 55.659977 -53.764670 49 31000ft 505kts
27-Jun-21 15:46 55.765935 -53.543367 49 31000ft 505kts
27-Jun-21 15:46 55.841501 -53.384290 49 31000ft 505kts
27-Jun-21 15:47 55.931920 -53.192559 50 31000ft 505kts
27-Jun-21 15:48 56.021813 -53.000417 50 31000ft 505kts
27-Jun-21 15:49 56.111485 -52.807202 50 31000ft 505kts
27-Jun-21 15:50 56.201177 -52.612390 50 31000ft 505kts
27-Jun-21 15:51 56.290146 -52.417579 50 31000ft 505kts
27-Jun-21 15:52 56.379051 -52.221322 50 31000ft 505kts
27-Jun-21 15:53 56.467474 -52.024528 51 31000ft 505kts
27-Jun-21 15:54 56.555779 -51.826379 51 31000ft 505kts
27-Jun-21 15:55 56.643594 -51.627699 51 31000ft 505kts
27-Jun-21 15:56 56.731244 -51.427741 51 31000ft 505kts
27-Jun-21 15:57 56.818668 -51.226631 51 31000ft 505kts
27-Jun-21 15:58 56.905457 -51.025306 51 31000ft 505kts
27-Jun-21 15:59 56.991946 -50.822980 52 31000ft 505kts
27-Jun-21 16:00 57.078351 -50.619141 52 31000ft 505kts
27-Jun-21 16:01 57.164482 -50.414212 52 31000ft 505kts
27-Jun-21 16:02 57.249900 -50.209237 52 31000ft 505kts
27-Jun-21 16:03 57.335287 -50.002571 52 31000ft 505kts
27-Jun-21 16:04 57.420280 -49.795077 52 31000ft 505kts
27-Jun-21 16:05 57.504727 -49.587118 53 31000ft 505kts
27-Jun-21 16:06 57.589155 -49.377389 53 31000ft 505kts
27-Jun-21 16:07 57.672958 -49.167384 53 31000ft 505kts
27-Jun-21 16:08 57.756578 -48.955985 53 31000ft 505kts
27-Jun-21 16:09 57.839544 -48.744377 53 31000ft 505kts
27-Jun-21 16:10 57.922562 -48.530746 53 31000ft 505kts
27-Jun-21 16:11 58.005012 -48.316666 54 31000ft 505kts
27-Jun-21 16:12 58.087109 -48.101581 54 31000ft 505kts
27-Jun-21 16:13 58.168809 -47.885592 54 31000ft 505kts
27-Jun-21 16:14 58.250281 -47.668242 54 31000ft 505kts
27-Jun-21 16:15 58.331200 -47.450384 54 31000ft 505kts
27-Jun-21 16:16 58.411842 -47.231269 55 31000ft 505kts
27-Jun-21 16:17 58.492043 -47.011332 55 31000ft 505kts
27-Jun-21 16:18 58.572144 -46.789619 55 31000ft 505kts
27-Jun-21 16:19 58.651654 -46.567473 55 31000ft 505kts
27-Jun-21 16:20 58.730602 -46.344820 55 31000ft 505kts
27-Jun-21 16:21 58.809507 -46.120174 56 31000ft 505kts
27-Jun-21 16:22 58.887833 -45.895049 56 31000ft 505kts
27-Jun-21 16:23 58.965629 -45.669304 56 31000ft 505kts
27-Jun-21 16:24 59.043346 -45.441608 56 31000ft 505kts
27-Jun-21 16:25 59.120529 -45.213277 56 31000ft 505kts
27-Jun-21 16:26 59.197138 -44.984434 57 31000ft 505kts
27-Jun-21 16:27 59.273581 -44.753844 57 31000ft 505kts
27-Jun-21 16:28 59.349492 -44.522596 57 31000ft 505kts
27-Jun-21 16:29 59.425054 -44.290119 57 31000ft 505kts
27-Jun-21 16:30 59.500176 -44.056686 57 31000ft 505kts
27-Jun-21 16:31 59.574861 -43.822276 58 31000ft 505kts
27-Jun-21 16:32 59.649042 -43.587091 58 31000ft 505kts
27-Jun-21 16:33 59.722943 -43.350403 58 31000ft 505kts
27-Jun-21 16:34 59.796350 -43.112887 58 31000ft 505kts
27-Jun-21 16:35 59.869275 -42.874499 58 31000ft 505kts
27-Jun-21 16:36 59.941836 -42.634838 59 31000ft 505kts
27-Jun-21 16:37 60.014112 -42.393623 59 31000ft 505kts
27-Jun-21 16:38 60.085410 -42.153171 59 31000ft 505kts
27-Jun-21 16:39 60.156927 -41.909428 59 31000ft 505kts
27-Jun-21 16:40 60.227805 -41.665284 59 31000ft 505kts
27-Jun-21 16:41 60.297996 -41.420914 60 31000ft 505kts
27-Jun-21 16:42 60.367947 -41.174746 60 31000ft 505kts
27-Jun-21 16:43 60.437283 -40.928092 60 31000ft 505kts
27-Jun-21 16:44 60.506260 -40.680026 60 31000ft 505kts
27-Jun-21 16:45 60.574790 -40.430852 60 31000ft 505kts
27-Jun-21 16:46 60.642757 -40.180986 61 31000ft 505kts
27-Jun-21 16:47 60.710578 -39.928864 61 31000ft 505kts
27-Jun-21 16:48 60.777507 -39.677255 61 31000ft 505kts
27-Jun-21 16:49 60.844195 -39.423708 61 31000ft 505kts
27-Jun-21 16:50 60.910308 -39.169478 62 31000ft 505kts
27-Jun-21 16:51 60.975921 -38.914268 62 31000ft 505kts
27-Jun-21 16:52 61.041161 -38.657568 62 31000ft 505kts
27-Jun-21 16:53 61.105930 -38.399731 62 31000ft 505kts
27-Jun-21 16:54 61.170104 -38.141254 62 31000ft 505kts
27-Jun-21 16:55 61.233846 -37.881477 63 31000ft 505kts
27-Jun-21 16:56 61.296949 -37.621227 63 31000ft 505kts
27-Jun-21 16:57 61.359641 -37.359561 63 31000ft 505kts
27-Jun-21 16:58 61.421824 -37.096868 63 31000ft 505kts
27-Jun-21 16:59 61.483544 -36.832937 64 31000ft 505kts
27-Jun-21 17:00 61.544785 -36.567817 64 31000ft 505kts
27-Jun-21 17:01 61.605245 -36.302822 64 31000ft 505kts
27-Jun-21 17:02 61.665439 -36.035682 64 31000ft 505kts
27-Jun-21 17:03 61.725126 -35.767434 65 31000ft 505kts
27-Jun-21 17:04 61.784225 -35.498432 65 31000ft 505kts
27-Jun-21 17:05 61.842856 -35.228120 65 31000ft 505kts
27-Jun-21 17:06 61.900722 -34.957868 65 31000ft 505kts
27-Jun-21 17:07 61.958293 -34.685477 65 31000ft 505kts
27-Jun-21 17:08 62.015223 -34.412547 66 31000ft 505kts
27-Jun-21 17:09 62.071785 -34.137758 66 31000ft 505kts
27-Jun-21 17:10 62.127522 -33.863323 66 31000ft 505kts
27-Jun-21 17:11 62.182926 -33.586810 66 31000ft 505kts
27-Jun-21 17:12 62.237715 -33.309609 67 31000ft 505kts
27-Jun-21 17:13 62.289739 -33.042810 67 31000ft 505kts
27-Jun-21 17:14 62.345531 -32.752678 67 31000ft 505kts
27-Jun-21 17:15 62.398650 -32.472461 67 31000ft 505kts
27-Jun-21 17:16 62.451171 -32.191435 68 31000ft 505kts
27-Jun-21 17:17 62.503222 -31.908895 68 31000ft 505kts
27-Jun-21 17:18 62.554597 -31.625939 68 31000ft 505kts
27-Jun-21 17:19 62.605442 -31.341775 68 31000ft 505kts
27-Jun-21 17:20 62.655700 -31.056678 69 31000ft 505kts
27-Jun-21 17:21 62.705216 -30.771567 69 31000ft 505kts
27-Jun-21 17:22 62.754448 -30.483748 69 31000ft 505kts
27-Jun-21 17:23 62.802893 -30.196149 69 31000ft 505kts
27-Jun-21 17:24 62.850822 -29.907177 70 31000ft 505kts
27-Jun-21 17:25 62.898026 -29.618071 70 31000ft 505kts
27-Jun-21 17:26 62.944732 -29.327442 70 31000ft 505kts
27-Jun-21 17:27 62.990919 -29.035380 70 31000ft 505kts
27-Jun-21 17:28 63.036496 -28.742442 71 31000ft 505kts
27-Jun-21 17:29 63.081369 -28.449208 71 31000ft 505kts
27-Jun-21 17:30 63.125677 -28.154810 71 31000ft 505kts
27-Jun-21 17:31 63.169252 -27.860330 72 31000ft 505kts
27-Jun-21 17:32 63.212405 -27.563657 72 31000ft 505kts
27-Jun-21 17:33 63.254863 -27.266640 72 31000ft 505kts
27-Jun-21 17:34 63.296599 -26.969473 72 31000ft 505kts
27-Jun-21 17:35 63.337879 -26.670259 73 31000ft 505kts
27-Jun-21 17:36 63.378482 -26.370554 73 31000ft 505kts
27-Jun-21 17:37 63.418392 -26.070491 73 31000ft 505kts
27-Jun-21 17:38 63.457664 -25.769636 73 31000ft 505kts
27-Jun-21 17:39 63.496398 -25.467225 74 31000ft 505kts
27-Jun-21 17:40 63.534449 -25.164339 74 31000ft 505kts
27-Jun-21 17:41 63.571933 -24.860051 74 31000ft 505kts
27-Jun-21 17:42 63.608661 -24.555896 74 31000ft 505kts
27-Jun-21 17:43 63.644048 -24.256897 75 31000ft 505kts
27-Jun-21 17:44 63.680164 -23.945402 75 31000ft 505kts
27-Jun-21 17:45 63.714996 -23.638533 75 31000ft 505kts
27-Jun-21 17:46 63.749164 -23.331019 76 31000ft 505kts
27-Jun-21 17:47 63.782670 -23.022781 76 31000ft 505kts
27-Jun-21 17:48 63.815586 -22.713200 76 31000ft 505kts
27-Jun-21 17:49 63.847812 -22.403135 76 31000ft 505kts
27-Jun-21 17:50 63.879325 -22.092862 77 31000ft 505kts
27-Jun-21 17:51 63.910102 -21.782599 77 31000ft 505kts
27-Jun-21 17:52 63.940318 -21.470564 77 31000ft 505kts
27-Jun-21 17:53 63.969849 -21.158016 78 31000ft 505kts
27-Jun-21 17:55 63.998688 -20.845019 78 31000ft 505kts
27-Jun-21 17:56 64.026841 -20.531505 78 31000ft 505kts
27-Jun-21 17:57 64.054354 -20.216941 78 31000ft 505kts
27-Jun-21 17:58 64.081150 -19.902187 79 31000ft 505kts
27-Jun-21 17:59 64.107317 -19.586178 79 31000ft 505kts
27-Jun-21 18:00 64.132721 -19.270593 79 31000ft 505kts
27-Jun-21 18:01 64.157511 -18.953488 79 31000ft 505kts
27-Jun-21 18:02 64.181605 -18.635917 80 31000ft 505kts
27-Jun-21 18:03 64.204954 -18.318560 80 31000ft 505kts
27-Jun-21 18:04 64.227627 -18.000472 80 31000ft 505kts
27-Jun-21 18:05 64.249645 -17.681336 81 31000ft 505kts
27-Jun-21 18:06 64.270932 -17.362207 81 31000ft 505kts
27-Jun-21 18:07 64.291524 -17.042590 81 31000ft 505kts
27-Jun-21 18:08 64.311494 -16.721204 82 31000ft 505kts
27-Jun-21 18:09 64.330669 -16.400932 82 31000ft 505kts
27-Jun-21 18:10 64.349150 -16.080085 82 31000ft 505kts
27-Jun-21 18:11 64.366970 -15.758050 82 31000ft 505kts
27-Jun-21 18:12 64.384061 -15.436077 83 31000ft 505kts
27-Jun-21 18:13 64.400443 -15.113747 83 31000ft 505kts
27-Jun-21 18:14 64.416120 -14.791006 83 31000ft 505kts
27-Jun-21 18:15 64.431088 -14.467888 84 31000ft 505kts
27-Jun-21 18:15 64.443001 -14.198802 84 31000ft 505kts
27-Jun-21 18:17 64.458892 -13.820619 84 31000ft 505kts
27-Jun-21 18:18 64.471740 -13.496177 84 31000ft 505kts
27-Jun-21 18:19 64.483837 -13.172383 85 31000ft 505kts
27-Jun-21 18:19 64.493383 -12.902115 85 31000ft 505kts
27-Jun-21 18:20 64.504226 -12.576216 85 31000ft 505kts
27-Jun-21 18:22 64.515909 -12.197532 86 31000ft 505kts
27-Jun-21 18:23 64.525166 -11.872078 86 31000ft 505kts
27-Jun-21 18:23 64.532351 -11.599940 86 31000ft 505kts
27-Jun-21 18:24 64.540287 -11.274254 86 31000ft 505kts
27-Jun-21 18:26 64.548636 -10.893952 87 31000ft 505kts
27-Jun-21 18:26 64.554001 -10.622187 87 31000ft 505kts
27-Jun-21 18:27 64.559784 -10.295526 87 31000ft 505kts
27-Jun-21 18:28 64.564842 -9.969029 88 31000ft 505kts
27-Jun-21 18:29 64.569173 -9.642716 88 31000ft 505kts
27-Jun-21 18:30 64.572788 -9.315727 88 31000ft 505kts
27-Jun-21 18:31 64.575671 -8.989846 88 31000ft 505kts
27-Jun-21 18:32 64.577846 -8.661899 89 31000ft 505kts
27-Jun-21 18:33 64.579286 -8.336280 89 31000ft 505kts
27-Jun-21 18:34 64.580009 -8.008510 89 31000ft 505kts
27-Jun-21 18:35 64.580008 -7.681367 90 31000ft 505kts
27-Jun-21 18:36 64.579283 -7.354779 90 31000ft 505kts
27-Jun-21 18:37 64.577836 -7.027831 90 31000ft 505kts
27-Jun-21 18:38 64.575661 -6.700520 91 31000ft 505kts
27-Jun-21 18:39 64.572773 -6.374594 91 31000ft 505kts
27-Jun-21 18:40 64.569159 -6.047964 91 31000ft 505kts
27-Jun-21 18:41 64.564820 -5.721282 91 31000ft 505kts
27-Jun-21 18:42 64.559748 -5.394042 92 31000ft 505kts
27-Jun-21 18:43 64.553980 -5.068448 92 31000ft 505kts
27-Jun-21 18:44 64.547478 -4.742191 92 31000ft 505kts
27-Jun-21 18:45 64.540238 -4.415465 93 31000ft 505kts
27-Jun-21 18:46 64.532301 -4.089844 93 31000ft 505kts
27-Jun-21 18:47 64.523891 -3.773271 93 31000ft 505kts
27-Jun-21 18:48 64.514508 -3.447145 93 31000ft 505kts
27-Jun-21 18:49 64.504448 -3.122519 94 31000ft 505kts
27-Jun-21 18:50 64.493648 -2.797432 94 31000ft 505kts
27-Jun-21 18:51 64.482150 -2.473036 94 31000ft 505kts
27-Jun-21 18:52 64.469890 -2.147767 95 31000ft 505kts
27-Jun-21 18:53 64.456973 -1.824204 95 31000ft 505kts
27-Jun-21 18:54 64.443311 -1.500201 95 31000ft 505kts
27-Jun-21 18:55 64.428946 -1.176655 96 31000ft 505kts
27-Jun-21 18:56 64.413868 -0.853467 96 31000ft 505kts
27-Jun-21 18:57 64.398066 -0.530373 96 31000ft 505kts
27-Jun-21 18:58 64.381604 -0.208544 96 31000ft 505kts
27-Jun-21 18:59 64.364425 0.113106 97 31000ft 505kts
27-Jun-21 19:00 64.346485 0.435374 97 31000ft 505kts
27-Jun-21 19:01 64.327905 0.756046 97 31000ft 505kts
27-Jun-21 19:02 64.308586 1.076946 98 31000ft 505kts
27-Jun-21 19:03 64.288595 1.396916 98 31000ft 505kts
27-Jun-21 19:04 64.267866 1.717067 98 31000ft 505kts
27-Jun-21 19:05 64.246435 2.036763 98 31000ft 505kts
27-Jun-21 19:06 64.224364 2.355107 99 31000ft 505kts
27-Jun-21 19:07 64.201618 2.672756 99 31000ft 505kts
27-Jun-21 19:08 64.178099 2.990970 99 31000ft 505kts
27-Jun-21 19:09 64.153935 3.308057 100 31000ft 505kts
27-Jun-21 19:10 64.129060 3.624851 100 31000ft 505kts
27-Jun-21 19:11 64.103532 3.940686 100 31000ft 505kts
27-Jun-21 19:12 64.077318 4.255954 100 31000ft 505kts
27-Jun-21 19:13 64.050387 4.571057 101 31000ft 505kts
27-Jun-21 19:14 64.022822 4.885014 101 31000ft 505kts
27-Jun-21 19:15 63.994526 5.198965 101 31000ft 505kts
27-Jun-21 19:16 63.965633 5.511406 102 31000ft 505kts
27-Jun-21 19:17 63.935985 5.824053 102 31000ft 505kts
27-Jun-21 19:18 63.905746 6.135232 102 31000ft 505kts
27-Jun-21 19:19 63.874766 6.446473 102 31000ft 505kts
27-Jun-21 19:20 63.843131 6.756914 103 31000ft 505kts
27-Jun-21 19:21 63.810835 7.066602 103 31000ft 505kts
27-Jun-21 19:22 63.777948 7.374938 103 31000ft 505kts
27-Jun-21 19:23 63.744280 7.683675 103 31000ft 505kts
27-Jun-21 19:24 63.710085 7.990509 104 31000ft 505kts
27-Jun-21 19:25 63.675092 8.297866 104 31000ft 505kts
27-Jun-21 19:26 63.639607 8.603100 104 31000ft 505kts
27-Jun-21 19:27 63.603399 8.908192 105 31000ft 505kts
27-Jun-21 19:28 63.566443 9.213340 105 31000ft 505kts
27-Jun-21 19:29 63.529021 9.516256 105 31000ft 505kts
27-Jun-21 19:30 63.490877 9.819016 105 31000ft 505kts
27-Jun-21 19:31 63.452021 10.121564 106 31000ft 505kts
27-Jun-21 19:32 63.412620 10.422573 106 31000ft 505kts
27-Jun-21 19:33 63.372628 10.722468 106 31000ft 505kts
27-Jun-21 19:34 63.331964 11.021817 106 31000ft 505kts
27-Jun-21 19:35 63.290624 11.320701 107 31000ft 505kts
27-Jun-21 19:36 63.248627 11.618960 107 31000ft 505kts
27-Jun-21 19:37 63.206141 11.915419 107 31000ft 505kts
27-Jun-21 19:38 63.163026 12.211100 108 31000ft 505kts
27-Jun-21 19:39 63.119186 12.506633 108 31000ft 505kts
27-Jun-21 19:40 63.074846 12.800536 108 31000ft 505kts
27-Jun-21 19:41 63.029822 13.094030 108 31000ft 505kts
27-Jun-21 19:42 62.984255 13.386228 109 31000ft 505kts
27-Jun-21 19:43 62.938021 13.677909 109 31000ft 505kts
27-Jun-21 19:44 62.891223 13.968460 109 31000ft 505kts
27-Jun-21 19:45 62.843784 14.258340 109 31000ft 505kts
27-Jun-21 19:46 62.795860 14.546629 110 31000ft 505kts
27-Jun-21 19:47 62.747286 14.834341 110 31000ft 505kts
27-Jun-21 19:48 62.697994 15.121863 110 31000ft 505kts
27-Jun-21 19:49 62.648306 15.407343 110 31000ft 505kts
27-Jun-21 19:50 62.597895 15.692670 111 31000ft 505kts
27-Jun-21 19:51 62.547042 15.976275 111 31000ft 505kts
27-Jun-21 19:52 62.495561 16.259213 111 31000ft 505kts
27-Jun-21 19:53 62.443459 16.541443 111 31000ft 505kts
27-Jun-21 19:54 62.390891 16.822136 112 31000ft 505kts
27-Jun-21 19:55 62.337708 17.102125 112 31000ft 505kts
27-Jun-21 19:56 62.283862 17.381639 112 31000ft 505kts
27-Jun-21 19:57 62.229580 17.659520 112 31000ft 505kts
27-Jun-21 19:58 62.174721 17.936520 113 31000ft 505kts
27-Jun-21 19:59 62.119261 18.212748 113 31000ft 505kts
27-Jun-21 20:00 62.063422 18.487147 113 31000ft 505kts
27-Jun-21 20:01 62.006800 18.761692 113 31000ft 505kts
27-Jun-21 20:02 61.949853 19.034182 114 31000ft 505kts
27-Jun-21 20:03 61.892155 19.306660 114 31000ft 505kts
27-Jun-21 20:04 61.834211 19.576767 114 31000ft 505kts
27-Jun-21 20:05 61.775555 19.846684 114 31000ft 505kts
27-Jun-21 20:06 61.716151 20.116558 115 31000ft 505kts
27-Jun-21 20:07 61.656474 20.384264 115 31000ft 505kts
27-Jun-21 20:08 61.596313 20.650756 115 31000ft 505kts
27-Jun-21 20:09 61.535502 20.916805 115 31000ft 505kts
27-Jun-21 20:10 61.474298 21.181277 115 31000ft 505kts
27-Jun-21 20:11 61.412635 21.444499 116 31000ft 505kts
27-Jun-21 20:12 61.350357 21.707126 116 31000ft 505kts
27-Jun-21 20:13 61.287412 21.969385 116 31000ft 505kts
27-Jun-21 20:14 61.224173 22.229732 116 31000ft 505kts
27-Jun-21 20:15 61.160390 22.489219 117 31000ft 505kts
27-Jun-21 20:16 61.096098 22.747712 117 31000ft 505kts
27-Jun-21 20:17 61.031308 23.005169 117 31000ft 505kts
27-Jun-21 20:18 60.966016 23.261638 117 31000ft 505kts
27-Jun-21 20:19 60.900261 23.516960 118 31000ft 505kts
27-Jun-21 20:20 60.834042 23.771168 118 31000ft 505kts
27-Jun-21 20:21 60.767420 24.024033 118 31000ft 505kts
27-Jun-21 20:22 60.700275 24.276036 118 31000ft 505kts
27-Jun-21 20:23 60.632732 24.526712 118 31000ft 505kts
27-Jun-21 20:24 60.564377 24.777598 119 31000ft 505kts
27-Jun-21 20:25 60.495857 25.026326 119 31000ft 505kts
27-Jun-21 20:26 60.426756 25.274425 119 31000ft 505kts
27-Jun-21 20:27 60.357296 25.521119 119 31000ft 505kts
27-Jun-21 20:28 60.287462 25.766477 119 31000ft 505kts
27-Jun-21 20:29 60.217059 26.011200 120 31000ft 505kts
27-Jun-21 20:30 60.146085 26.255288 120 31000ft 505kts
27-Jun-21 20:31 60.074817 26.497804 120 31000ft 505kts
27-Jun-21 20:32 60.002949 26.739800 120 31000ft 505kts
27-Jun-21 20:33 59.930752 26.980372 121 31000ft 505kts
27-Jun-21 20:34 59.857983 27.220346 121 31000ft 505kts
27-Jun-21 20:35 59.785098 27.458228 121 31000ft 505kts
27-Jun-21 20:36 59.711438 27.696191 121 31000ft 505kts
27-Jun-21 20:38 59.628356 27.919025 135 31002ft 505kts
27-Jun-21 20:39 59.521027 28.097172 141 31000ft 505kts
27-Jun-21 20:40 59.409855 28.267419 142 30999ft 505kts
27-Jun-21 20:41 59.299119 28.436512 141 31000ft 505kts
27-Jun-21 20:42 59.188880 28.606065 141 31000ft 505kts
27-Jun-21 20:43 59.078789 28.776887 141 31000ft 505kts
27-Jun-21 20:44 58.969488 28.948077 140 31000ft 505kts
27-Jun-21 20:45 58.860665 29.120193 140 31000ft 505kts
27-Jun-21 20:46 58.752465 29.293083 140 31000ft 505kts
27-Jun-21 20:47 58.644950 29.466722 139 31000ft 505kts
27-Jun-21 20:48 58.537616 29.642019 139 31000ft 505kts
27-Jun-21 20:49 58.431293 29.817706 138 31000ft 505kts
27-Jun-21 20:50 58.325735 29.994272 138 31000ft 505kts
27-Jun-21 20:51 58.220760 30.172124 138 31000ft 505kts
27-Jun-21 20:52 58.116661 30.350867 137 31000ft 505kts
27-Jun-21 20:53 58.013504 30.530494 137 31000ft 505kts
27-Jun-21 20:54 57.911036 30.711564 136 31000ft 505kts
27-Jun-21 20:55 57.809508 30.893763 136 31000ft 505kts
27-Jun-21 20:56 57.708674 31.077679 135 31000ft 505kts
27-Jun-21 20:57 57.609037 31.262545 134 31000ft 505kts
27-Jun-21 20:58 57.510330 31.449011 134 31000ft 505kts
27-Jun-21 20:59 57.412617 31.637138 133 31000ft 505kts
27-Jun-21 21:00 57.316355 31.826229 132 31000ft 505kts
27-Jun-21 21:01 57.220941 32.017659 132 30479ft 504kts
27-Jun-21 21:01 57.143922 32.175408 131 29646ft 492kts
27-Jun-21 21:03 57.039611 32.394184 130 28474ft 481kts
27-Jun-21 21:04 56.953755 32.579102 129 27475ft 472kts
27-Jun-21 21:05 56.870934 32.762155 129 26471ft 461kts
27-Jun-21 21:06 56.791151 32.943324 128 25470ft 454kts
27-Jun-21 21:06 56.726767 33.093334 127 24637ft 449kts
27-Jun-21 21:07 56.651671 33.273097 126 23635ft 442kts
27-Jun-21 21:08 56.579400 33.451561 125 22635ft 436kts
27-Jun-21 21:10 56.498606 33.658335 124 21469ft 428kts
27-Jun-21 21:10 56.442960 33.805848 123 20634ft 423kts
27-Jun-21 21:11 56.378801 33.981891 122 19634ft 416kts
27-Jun-21 21:12 56.317306 34.157539 121 18631ft 410kts
27-Jun-21 21:13 56.258842 34.331911 120 17631ft 404kts
27-Jun-21 21:14 56.203152 34.505978 119 16629ft 398kts
27-Jun-21 21:15 56.150601 34.678841 117 15631ft 392kts
27-Jun-21 21:16 56.100934 34.851653 116 14629ft 387kts
27-Jun-21 21:17 56.054440 35.023846 115 13627ft 381kts
27-Jun-21 21:18 56.011242 35.195423 113 12627ft 376kts
27-Jun-21 21:19 55.971387 35.366833 111 11625ft 370kts
27-Jun-21 21:20 55.935193 35.537519 109 10625ft 365kts
27-Jun-21 21:21 55.903857 35.702148 107 9609ft 329kts
27-Jun-21 21:22 55.879169 35.849768 105 8591ft 296kts
27-Jun-21 21:23 55.860771 35.976078 103 7660ft 279kts
27-Jun-21 21:24 55.844155 36.109810 101 6656ft 274kts
27-Jun-21 21:25 55.830801 36.242237 99 5656ft 270kts
27-Jun-21 21:26 55.824207 36.373377 88 5015ft 261kts
27-Jun-21 21:27 55.834348 36.502084 77 5000ft 265kts
27-Jun-21 21:28 55.852375 36.629341 74 5000ft 265kts
27-Jun-21 21:29 55.871840 36.756017 74 5000ft 265kts
27-Jun-21 21:30 55.891266 36.882643 74 5000ft 265kts
27-Jun-21 21:31 55.910196 37.007224 74 4470ft 259kts
27-Jun-21 21:32 55.928383 37.131392 75 4332ft 251kts
27-Jun-21 21:33 55.945385 37.242837 75 2973ft 222kts
27-Jun-21 21:34 55.960090 37.344633 73 1863ft 186kts
27-Jun-21 21:35 55.972181 37.419641 75 644ft 77kts
27-Jun-21 21:36 55.972901 37.424510 75 644ft 0kts
27-Jun-21 21:37 55.972902 37.424521 75 644ft 0kts
27-Jun-21 21:38 55.972904 37.424533 75 644ft 0kts
27-Jun-21 21:39 55.972905 37.424541 75 644ft 0kts

Navigation Log

Ident Type
Flight plan parsing failed, navigation log unavailable